Time;durP1;ratioP1;P1;durP2;ratioP2;P2;SDS_P1;SDS_P2;PMS_P1;PMS_P2;Temp;Humidity;BMP_temperature;BMP_pressure;BME280_temperature;BME280_humidity;BME280_pressure;Samples;Min_cycle;Max_cycle;Signal;HPM_P1;HPM_P2
2021/05/31 00:00:35;;;;;;;9.68;6.53;;;14.90;92.80;;;;;;5107605;28;20038;-39
2021/05/31 00:03:01;;;;;;;8.98;6.93;;;14.90;92.90;;;;;;5107298;28;20036;-36
2021/05/31 00:05:26;;;;;;;7.45;6.32;;;14.80;93.00;;;;;;5108252;28;20011;-39
2021/05/31 00:07:55;;;;;;;12.25;7.30;;;14.80;93.10;;;;;;5106403;28;20040;-44
2021/05/31 00:10:22;;;;;;;8.48;6.85;;;14.80;93.20;;;;;;5107585;28;20524;-40
2021/05/31 00:12:51;;;;;;;11.23;8.07;;;14.80;93.30;;;;;;5107119;28;20080;-40
2021/05/31 00:15:17;;;;;;;10.95;8.07;;;14.70;93.50;;;;;;5107488;28;20015;-39
2021/05/31 00:17:43;;;;;;;11.18;7.43;;;14.70;93.80;;;;;;5106908;28;20055;-39
2021/05/31 00:20:10;;;;;;;12.00;8.20;;;14.70;93.80;;;;;;5107388;28;20062;-39
2021/05/31 00:22:37;;;;;;;9.57;7.63;;;14.60;93.90;;;;;;5106963;28;20031;-39
2021/05/31 00:25:05;;;;;;;13.02;8.25;;;14.60;94.00;;;;;;5107718;28;20160;-39
2021/05/31 00:27:30;;;;;;;11.02;7.45;;;14.60;94.20;;;;;;5107045;28;20043;-36
2021/05/31 00:29:56;;;;;;;10.93;7.68;;;14.50;94.30;;;;;;5107047;28;20114;-39
2021/05/31 00:32:21;;;;;;;11.63;7.70;;;14.50;94.40;;;;;;5107764;28;20136;-39
2021/05/31 00:34:47;;;;;;;9.32;7.10;;;14.50;94.60;;;;;;5106368;28;20055;-37
2021/05/31 00:37:14;;;;;;;11.43;7.38;;;14.40;94.60;;;;;;5107342;28;20118;-37
2021/05/31 00:39:39;;;;;;;9.25;7.70;;;14.40;94.60;;;;;;5107261;28;20026;-40
2021/05/31 00:42:05;;;;;;;11.63;7.65;;;14.30;94.70;;;;;;5107083;28;20031;-39
2021/05/31 00:44:34;;;;;;;13.05;8.57;;;14.30;94.90;;;;;;5106582;28;20051;-38
2021/05/31 00:47:00;;;;;;;13.15;9.35;;;14.30;95.10;;;;;;5107417;28;20115;-39
2021/05/31 00:49:28;;;;;;;12.27;8.52;;;14.20;95.30;;;;;;5106788;28;20106;-37
2021/05/31 00:51:55;;;;;;;9.95;8.40;;;14.20;95.40;;;;;;5086550;28;20107;-39
2021/05/31 00:54:22;;;;;;;10.90;9.77;;;14.20;95.40;;;;;;5101354;28;20143;-39
2021/05/31 00:56:48;;;;;;;10.43;8.65;;;14.10;95.60;;;;;;5106235;28;20383;-39
2021/05/31 00:59:14;;;;;;;13.20;8.88;;;14.10;95.70;;;;;;5106987;28;20034;-37
2021/05/31 01:01:40;;;;;;;13.10;9.45;;;14.10;95.80;;;;;;5107143;28;20019;-38
2021/05/31 01:04:06;;;;;;;15.95;10.65;;;14.10;95.80;;;;;;5107041;28;20016;-40
2021/05/31 01:06:36;;;;;;;14.75;8.95;;;14.10;96.00;;;;;;5106801;28;20547;-39
2021/05/31 01:09:12;;;;;;;13.60;9.60;;;14.00;96.00;;;;;;5106446;28;20039;-38
2021/05/31 01:12:01;;;;;;;12.68;8.95;;;14.00;96.10;;;;;;5105986;28;20090;-39
2021/05/31 01:14:49;;;;;;;13.88;9.63;;;14.00;96.20;;;;;;5107298;28;20035;-39
2021/05/31 01:17:43;;;;;;;14.95;10.10;;;14.00;96.30;;;;;;5106172;28;20364;-39
2021/05/31 01:20:35;;;;;;;15.85;10.82;;;13.90;96.40;;;;;;5106688;28;20096;-39
2021/05/31 01:23:05;;;;;;;12.20;9.93;;;13.90;96.50;;;;;;5107064;28;20031;-39
2021/05/31 01:25:57;;;;;;;16.17;10.70;;;13.90;96.80;;;;;;5106089;28;20031;-39
2021/05/31 01:28:56;;;;;;;12.98;10.23;;;13.90;96.70;;;;;;5077894;28;20032;-38
2021/05/31 01:31:32;;;;;;;17.17;9.70;;;13.80;96.80;;;;;;5099080;28;20557;-39
2021/05/31 01:33:59;;;;;;;11.25;9.20;;;13.80;96.70;;;;;;5106272;28;20024;-39
2021/05/31 01:36:25;;;;;;;12.93;8.85;;;13.80;96.80;;;;;;5106616;28;20028;-36
2021/05/31 01:38:54;;;;;;;13.52;9.30;;;13.70;96.80;;;;;;5105333;28;20088;-39
2021/05/31 01:41:20;;;;;;;12.05;8.45;;;13.70;96.90;;;;;;5106390;28;20432;-39
2021/05/31 01:43:48;;;;;;;13.30;10.07;;;13.70;97.00;;;;;;5106481;28;20023;-38
2021/05/31 01:46:13;;;;;;;11.00;8.77;;;13.70;97.10;;;;;;5106125;28;20024;-39
2021/05/31 01:48:41;;;;;;;12.93;9.80;;;13.60;97.10;;;;;;5106331;28;20023;-38
2021/05/31 01:51:07;;;;;;;12.77;9.48;;;13.60;97.10;;;;;;5109954;28;20116;-38
2021/05/31 01:53:34;;;;;;;14.48;9.73;;;13.60;97.20;;;;;;5110294;28;20034;-36
2021/05/31 01:56:00;;;;;;;11.43;8.07;;;13.60;97.20;;;;;;5109994;28;20028;-40
2021/05/31 01:58:26;;;;;;;16.05;10.18;;;13.60;97.20;;;;;;5110127;28;20028;-38
2021/05/31 02:00:52;;;;;;;13.95;10.15;;;13.60;97.30;;;;;;5109306;28;20028;-39
2021/05/31 02:03:18;;;;;;;17.70;11.50;;;13.60;97.40;;;;;;5110305;28;20028;-40
2021/05/31 02:05:50;;;;;;;11.18;9.63;;;13.60;97.40;;;;;;5109077;28;20022;-37
2021/05/31 02:08:15;;;;;;;13.60;9.50;;;13.50;97.40;;;;;;5110359;28;20533;-38
2021/05/31 02:10:41;;;;;;;18.90;11.23;;;13.60;97.40;;;;;;5109081;28;20130;-39
2021/05/31 02:13:08;;;;;;;14.65;10.15;;;13.50;97.50;;;;;;5109703;28;20345;-39
2021/05/31 02:15:41;;;;;;;13.40;10.05;;;13.50;97.50;;;;;;5109701;28;20023;-40
2021/05/31 02:18:42;;;;;;;13.52;9.75;;;13.50;97.50;;;;;;5107002;28;20039;-39
2021/05/31 02:21:11;;;;;;;12.35;9.30;;;13.50;97.60;;;;;;5109130;27;20015;-39
2021/05/31 02:23:39;;;;;;;15.88;10.38;;;13.40;97.50;;;;;;5109504;28;20268;-38
2021/05/31 02:26:06;;;;;;;13.48;9.85;;;13.40;97.60;;;;;;5109809;28;20056;-41
2021/05/31 02:28:32;;;;;;;14.63;10.52;;;13.40;97.60;;;;;;5109049;27;20436;-40
2021/05/31 02:31:02;;;;;;;18.00;11.85;;;13.40;97.70;;;;;;5109711;28;20030;-39
2021/05/31 02:33:27;;;;;;;16.75;11.50;;;13.30;97.80;;;;;;5109631;28;20082;-40
2021/05/31 02:35:53;;;;;;;14.23;10.30;;;13.30;97.90;;;;;;5108935;28;20615;-39
2021/05/31 02:38:19;;;;;;;16.23;11.20;;;13.30;97.90;;;;;;5109233;28;20062;-39
2021/05/31 02:40:47;;;;;;;17.90;12.68;;;13.20;98.00;;;;;;5109174;28;20051;-39
2021/05/31 02:43:13;;;;;;;14.60;10.85;;;13.20;98.00;;;;;;5108762;28;20028;-40
2021/05/31 02:45:39;;;;;;;13.30;9.85;;;13.20;98.00;;;;;;5109246;28;20036;-39
2021/05/31 02:48:05;;;;;;;13.40;10.95;;;13.20;98.00;;;;;;5108497;27;20145;-39
2021/05/31 02:50:32;;;;;;;18.13;12.02;;;13.20;98.00;;;;;;5108870;28;20103;-40
2021/05/31 02:52:59;;;;;;;15.80;11.40;;;13.20;98.10;;;;;;5107972;28;20027;-39
2021/05/31 02:55:26;;;;;;;12.70;10.68;;;13.20;98.10;;;;;;5108703;28;20461;-39
2021/05/31 02:57:52;;;;;;;15.73;10.95;;;13.20;98.10;;;;;;5107744;28;20039;-39
2021/05/31 03:00:28;;;;;;;14.27;11.45;;;13.20;98.10;;;;;;5109116;28;20023;-39
2021/05/31 03:02:55;;;;;;;15.13;11.30;;;13.10;98.10;;;;;;5107222;28;20020;-40
2021/05/31 03:05:28;;;;;;;16.90;11.57;;;13.10;98.10;;;;;;5109222;28;20130;-39
2021/05/31 03:07:54;;;;;;;15.80;11.30;;;13.10;98.10;;;;;;5108214;28;20063;-40
2021/05/31 03:10:20;;;;;;;18.67;12.48;;;13.10;98.10;;;;;;5108185;28;20431;-38
2021/05/31 03:12:46;;;;;;;15.70;11.27;;;13.10;98.20;;;;;;5108194;28;20498;-39
2021/05/31 03:15:15;;;;;;;12.40;10.57;;;13.10;98.20;;;;;;5108939;28;20119;-39
2021/05/31 03:17:41;;;;;;;14.82;10.18;;;13.00;98.10;;;;;;5107890;28;20140;-40
2021/05/31 03:20:08;;;;;;;15.85;10.60;;;13.00;98.10;;;;;;5108633;28;20045;-39
2021/05/31 03:22:34;;;;;;;14.90;10.80;;;12.90;98.10;;;;;;5108124;28;20134;-39
2021/05/31 03:24:59;;;;;;;15.35;11.40;;;12.90;98.10;;;;;;5107947;28;20131;-37
2021/05/31 03:27:25;;;;;;;18.20;12.25;;;12.90;98.10;;;;;;5108834;28;20027;-41
2021/05/31 03:29:50;;;;;;;16.67;11.95;;;12.90;98.10;;;;;;5107557;28;20035;-39
2021/05/31 03:32:16;;;;;;;14.85;10.60;;;12.90;98.10;;;;;;5108323;28;20035;-38
2021/05/31 03:34:44;;;;;;;15.30;12.10;;;12.90;98.10;;;;;;5107430;28;20023;-39
2021/05/31 03:37:10;;;;;;;15.20;11.25;;;12.90;98.00;;;;;;5108376;28;20442;-39
2021/05/31 03:39:36;;;;;;;17.30;12.05;;;12.90;98.00;;;;;;5107312;28;20020;-39
2021/05/31 03:42:04;;;;;;;18.42;13.30;;;12.90;98.00;;;;;;5108598;27;20024;-44
2021/05/31 03:44:30;;;;;;;14.70;11.65;;;12.90;98.00;;;;;;5107580;27;20026;-39
2021/05/31 03:46:55;;;;;;;12.85;10.02;;;12.90;98.00;;;;;;5108377;28;20020;-37
2021/05/31 03:49:21;;;;;;;17.25;11.43;;;12.90;98.10;;;;;;5107806;28;20556;-37
2021/05/31 03:51:47;;;;;;;13.73;11.60;;;12.80;98.00;;;;;;5107216;28;20463;-40
2021/05/31 03:54:13;;;;;;;18.40;12.02;;;12.80;98.10;;;;;;5108299;28;20031;-39
2021/05/31 03:56:39;;;;;;;17.40;12.63;;;12.80;98.10;;;;;;5107529;28;20036;-37
2021/05/31 03:59:05;;;;;;;15.30;12.00;;;12.80;98.20;;;;;;5107343;28;20015;-39
2021/05/31 04:01:32;;;;;;;15.57;11.25;;;12.80;98.10;;;;;;5107583;28;20098;-40
2021/05/31 04:03:58;;;;;;;17.17;11.43;;;12.80;98.20;;;;;;5107684;28;20035;-40
2021/05/31 04:06:28;;;;;;;16.08;12.63;;;12.80;98.20;;;;;;5107274;28;20371;-40
2021/05/31 04:11:37;;;;;;;17.10;12.02;;;12.80;98.20;;;;;;5107150;28;20041;-39
2021/05/31 04:14:17;;;;;;;14.00;11.20;;;12.80;98.30;;;;;;5106903;28;20043;-39
2021/05/31 04:16:51;;;;;;;16.67;11.18;;;12.80;98.30;;;;;;5106834;28;20054;-40
2021/05/31 04:19:19;;;;;;;16.02;11.05;;;12.80;98.30;;;;;;5108093;28;20077;-40
2021/05/31 04:21:47;;;;;;;15.32;11.88;;;12.80;98.30;;;;;;5106979;28;20121;-40
2021/05/31 04:24:14;;;;;;;12.40;10.50;;;12.80;98.30;;;;;;5108340;28;20016;-41
2021/05/31 04:26:40;;;;;;;17.58;12.80;;;12.80;98.30;;;;;;5107030;28;20024;-40
2021/05/31 04:29:07;;;;;;;17.63;11.77;;;12.90;98.30;;;;;;5108007;28;20023;-40
2021/05/31 04:31:34;;;;;;;16.20;11.77;;;12.90;98.30;;;;;;5107881;28;20031;-41
2021/05/31 04:34:00;;;;;;;14.77;11.40;;;12.90;98.30;;;;;;5107359;28;20394;-40
2021/05/31 04:36:31;;;;;;;16.02;11.38;;;12.90;98.20;;;;;;5107666;28;20032;-41
2021/05/31 04:38:57;;;;;;;14.23;10.77;;;12.90;98.20;;;;;;5107798;28;20088;-40
2021/05/31 04:41:22;;;;;;;14.63;10.95;;;12.90;98.20;;;;;;5107647;28;20028;-40
2021/05/31 04:43:48;;;;;;;15.88;11.10;;;13.00;98.20;;;;;;5107699;28;20026;-40
2021/05/31 04:46:13;;;;;;;13.82;10.23;;;13.00;98.10;;;;;;5107481;28;20497;-40
2021/05/31 04:48:39;;;;;;;15.05;11.10;;;13.00;98.10;;;;;;5106736;28;20016;-40
2021/05/31 04:51:05;;;;;;;14.32;10.65;;;13.10;98.10;;;;;;5107536;28;20375;-36
2021/05/31 04:53:36;;;;;;;13.77;10.93;;;13.10;98.00;;;;;;5107480;28;20115;-40
2021/05/31 04:56:05;;;;;;;13.63;9.63;;;13.20;98.00;;;;;;5106387;28;20122;-40
2021/05/31 04:58:31;;;;;;;13.35;9.70;;;13.20;97.90;;;;;;5106754;28;20417;-39
2021/05/31 05:00:57;;;;;;;11.65;9.88;;;13.20;97.90;;;;;;5107129;28;20463;-40
2021/05/31 05:03:22;;;;;;;15.23;10.80;;;13.30;97.80;;;;;;5106999;28;20229;-37
2021/05/31 05:05:48;;;;;;;14.02;9.32;;;13.30;97.80;;;;;;5106511;28;20517;-37
2021/05/31 05:08:15;;;;;;;13.93;10.50;;;13.30;97.80;;;;;;5106778;28;20043;-38
2021/05/31 05:10:40;;;;;;;14.30;10.00;;;13.40;97.70;;;;;;5106337;28;20031;-39
2021/05/31 05:13:06;;;;;;;12.40;9.45;;;13.40;97.70;;;;;;5106358;28;20027;-38
2021/05/31 05:15:33;;;;;;;13.35;8.93;;;13.50;97.70;;;;;;5107351;28;20023;-41
2021/05/31 05:17:59;;;;;;;13.15;9.93;;;13.50;97.60;;;;;;5106321;28;20035;-39
2021/05/31 05:20:26;;;;;;;12.10;9.25;;;13.50;97.80;;;;;;5106893;28;20118;-39
2021/05/31 05:22:52;;;;;;;14.45;10.70;;;13.60;97.50;;;;;;5106326;28;20433;-38
2021/05/31 05:25:18;;;;;;;13.90;9.50;;;13.60;97.50;;;;;;5108827;28;20098;-40
2021/05/31 05:27:45;;;;;;;11.35;8.88;;;13.70;97.40;;;;;;5110156;28;20431;-42
2021/05/31 05:30:13;;;;;;;15.18;9.35;;;13.70;97.40;;;;;;5111089;28;20022;-40
2021/05/31 05:32:39;;;;;;;11.20;9.05;;;13.80;97.40;;;;;;5110298;28;20478;-40
2021/05/31 05:35:19;;;;;;;12.18;9.30;;;13.80;97.30;;;;;;5110741;28;20508;-38
2021/05/31 05:38:03;;;;;;;11.02;8.15;;;13.90;97.30;;;;;;5109577;28;20031;-35
2021/05/31 05:48:38;;;;;;;11.80;7.93;;;14.00;97.10;;;;;;5110144;28;20039;-40
2021/05/31 05:51:05;;;;;;;10.98;8.48;;;14.10;97.10;;;;;;5110161;28;20027;-36
2021/05/31 05:53:32;;;;;;;9.73;8.48;;;14.20;97.10;;;;;;5110113;28;20023;-40
2021/05/31 05:55:58;;;;;;;11.25;8.70;;;14.20;97.10;;;;;;5109679;28;20035;-42
2021/05/31 05:58:27;;;;;;;13.73;7.95;;;14.30;97.10;;;;;;5117324;27;20027;-37
2021/05/31 06:00:53;;;;;;;12.25;8.73;;;14.30;97.10;;;;;;5109766;28;20019;-40
2021/05/31 06:03:19;;;;;;;11.65;8.27;;;14.40;97.10;;;;;;5108030;28;20095;-39
2021/05/31 06:05:44;;;;;;;12.05;8.85;;;14.50;97.10;;;;;;5107739;28;20043;-39
2021/05/31 06:08:10;;;;;;;12.80;8.98;;;14.50;97.00;;;;;;5109770;28;20557;-40
2021/05/31 06:10:35;;;;;;;9.90;7.97;;;14.50;97.00;;;;;;5108881;28;20075;-40
2021/05/31 06:13:01;;;;;;;10.80;7.75;;;14.60;97.00;;;;;;5108635;28;20176;-37
2021/05/31 06:15:27;;;;;;;13.52;8.32;;;14.70;97.00;;;;;;5108861;28;20116;-41
2021/05/31 06:17:52;;;;;;;10.90;8.10;;;14.70;96.90;;;;;;5108854;28;20032;-39
2021/05/31 06:20:18;;;;;;;9.20;7.80;;;14.80;97.00;;;;;;5107960;27;20015;-39
2021/05/31 06:22:43;;;;;;;11.45;8.40;;;14.80;96.90;;;;;;5109464;28;20100;-39
2021/05/31 06:25:10;;;;;;;9.82;8.75;;;14.90;97.00;;;;;;5109727;28;20015;-38
2021/05/31 06:27:36;;;;;;;10.00;8.20;;;14.90;96.90;;;;;;5108205;28;20126;-39
2021/05/31 06:30:06;;;;;;;12.02;9.07;;;15.00;96.90;;;;;;5109250;28;20136;-38
2021/05/31 06:32:32;;;;;;;12.43;8.02;;;15.00;96.90;;;;;;5109403;28;20027;-38
2021/05/31 06:35:00;;;;;;;12.02;8.50;;;15.10;97.20;;;;;;5108302;28;20135;-41
2021/05/31 06:37:26;;;;;;;10.70;7.07;;;15.20;96.90;;;;;;5109727;28;20035;-40
2021/05/31 06:39:51;;;;;;;13.27;8.38;;;15.10;96.80;;;;;;5109124;28;20378;-40
2021/05/31 06:42:17;;;;;;;9.95;8.13;;;15.20;96.70;;;;;;5109366;28;20098;-39
2021/05/31 06:44:43;;;;;;;11.20;8.27;;;15.30;96.80;;;;;;5108816;28;20024;-38
2021/05/31 06:47:08;;;;;;;10.55;6.85;;;15.30;96.70;;;;;;5109213;28;20065;-39
2021/05/31 06:49:36;;;;;;;10.50;8.00;;;15.30;97.00;;;;;;5109113;28;20066;-41
2021/05/31 06:52:04;;;;;;;10.10;7.85;;;15.40;96.70;;;;;;5109164;28;20027;-38
2021/05/31 06:54:30;;;;;;;9.18;7.60;;;15.40;96.70;;;;;;5109488;27;20476;-39
2021/05/31 06:56:55;;;;;;;10.68;8.55;;;15.50;96.70;;;;;;5108633;28;20059;-42
2021/05/31 06:59:21;;;;;;;8.98;7.25;;;15.50;96.70;;;;;;5109723;28;20030;-40
2021/05/31 07:01:46;;;;;;;9.02;7.47;;;15.50;96.60;;;;;;5107577;28;20027;-41
2021/05/31 07:04:13;;;;;;;10.35;8.18;;;15.60;96.60;;;;;;5109676;28;20015;-41
2021/05/31 07:06:38;;;;;;;11.73;7.72;;;15.70;96.60;;;;;;5109606;28;20032;-40
2021/05/31 07:09:04;;;;;;;9.80;7.68;;;15.70;96.60;;;;;;5108128;28;20052;-40
2021/05/31 07:11:30;;;;;;;9.80;7.70;;;15.80;96.50;;;;;;5109073;28;20027;-37
2021/05/31 07:13:57;;;;;;;12.68;9.05;;;15.80;96.60;;;;;;5109165;28;20043;-40
2021/05/31 07:16:23;;;;;;;16.98;8.77;;;15.90;96.50;;;;;;5108950;28;20584;-40
2021/05/31 07:18:49;;;;;;;12.27;7.70;;;16.00;96.50;;;;;;5108371;28;20016;-40
2021/05/31 07:21:15;;;;;;;9.38;7.45;;;16.00;96.50;;;;;;5108729;28;20131;-39
2021/05/31 07:23:41;;;;;;;12.13;7.80;;;16.10;96.50;;;;;;5107956;28;20024;-40
2021/05/31 07:26:07;;;;;;;10.32;7.72;;;16.10;96.40;;;;;;5107841;28;20074;-40
2021/05/31 07:28:33;;;;;;;13.05;8.35;;;16.20;96.40;;;;;;5108709;28;20094;-40
2021/05/31 07:30:59;;;;;;;11.95;8.05;;;16.20;96.40;;;;;;5108179;28;20039;-40
2021/05/31 07:33:25;;;;;;;14.73;8.13;;;16.30;96.40;;;;;;5107177;28;20100;-40
2021/05/31 07:35:51;;;;;;;11.37;7.67;;;16.30;96.40;;;;;;5108211;28;20137;-41
2021/05/31 07:38:16;;;;;;;10.25;6.88;;;16.40;96.40;;;;;;5107684;28;20035;-40
2021/05/31 07:40:42;;;;;;;9.23;6.80;;;16.40;96.30;;;;;;5108321;28;20024;-41
2021/05/31 07:43:08;;;;;;;9.45;6.95;;;16.50;96.20;;;;;;5108077;28;20031;-39
2021/05/31 07:45:33;;;;;;;10.13;7.50;;;16.50;96.20;;;;;;5107146;28;20525;-40
2021/05/31 07:47:59;;;;;;;8.55;6.53;;;16.70;96.20;;;;;;5107177;28;20088;-40
2021/05/31 07:50:24;;;;;;;7.65;6.75;;;16.70;96.10;;;;;;5107690;28;20115;-40
2021/05/31 07:52:53;;;;;;;11.70;7.10;;;16.80;96.10;;;;;;5107632;28;20035;-39
2021/05/31 07:55:19;;;;;;;7.50;6.45;;;16.80;96.00;;;;;;5108669;28;20031;-40
2021/05/31 07:57:50;;;;;;;8.00;6.50;;;16.90;96.00;;;;;;5106053;28;20904;-39
2021/05/31 08:00:18;;;;;;;8.98;6.82;;;17.00;95.90;;;;;;5108381;28;20019;-40
2021/05/31 08:02:53;;;;;;;9.68;6.88;;;17.00;95.90;;;;;;5107196;28;20065;-39
2021/05/31 08:05:19;;;;;;;10.98;7.45;;;17.10;95.80;;;;;;5107633;28;20491;-40
2021/05/31 08:07:46;;;;;;;13.45;7.07;;;17.20;95.90;;;;;;5107252;28;20111;-39
2021/05/31 08:10:13;;;;;;;12.82;8.00;;;17.20;95.80;;;;;;5107875;28;20114;-39
2021/05/31 08:12:39;;;;;;;8.85;7.18;;;17.30;95.70;;;;;;5107101;28;20038;-40
2021/05/31 08:15:07;;;;;;;8.57;6.88;;;17.30;95.70;;;;;;5107724;28;20095;-40
2021/05/31 08:17:32;;;;;;;9.63;6.65;;;17.40;95.70;;;;;;5107261;28;20024;-40
2021/05/31 08:19:58;;;;;;;8.45;6.53;;;17.50;95.70;;;;;;5103866;28;20566;-40
2021/05/31 08:22:24;;;;;;;8.65;6.55;;;17.50;95.60;;;;;;5107986;28;20020;-41
2021/05/31 08:24:50;;;;;;;8.65;6.28;;;17.60;95.60;;;;;;5106341;28;20550;-39
2021/05/31 08:27:15;;;;;;;8.45;6.75;;;17.70;95.60;;;;;;5106962;28;20028;-39
2021/05/31 08:29:41;;;;;;;7.85;6.20;;;17.80;95.60;;;;;;5106635;28;20435;-39
2021/05/31 08:32:07;;;;;;;10.63;7.38;;;17.90;95.50;;;;;;5106960;28;20435;-39
2021/05/31 08:34:32;;;;;;;9.27;6.55;;;18.00;95.50;;;;;;5106747;28;20023;-40
2021/05/31 08:36:58;;;;;;;9.95;6.95;;;18.00;95.30;;;;;;5106653;28;20036;-40
2021/05/31 08:39:24;;;;;;;8.98;6.28;;;18.10;95.20;;;;;;5107042;28;20031;-39
2021/05/31 08:41:51;;;;;;;9.20;7.05;;;18.20;95.20;;;;;;5106347;28;20023;-40
2021/05/31 08:44:17;;;;;;;7.97;6.68;;;18.20;95.10;;;;;;5107486;28;20019;-39
2021/05/31 08:46:42;;;;;;;7.90;6.30;;;18.30;95.00;;;;;;5106528;28;20031;-40
2021/05/31 08:49:08;;;;;;;9.85;6.85;;;18.40;95.00;;;;;;5107688;28;20038;-41
2021/05/31 08:51:34;;;;;;;7.97;6.40;;;18.50;94.90;;;;;;5107033;28;20359;-39
2021/05/31 08:54:04;;;;;;;8.55;6.95;;;18.60;94.80;;;;;;5106390;28;20023;-40
2021/05/31 08:56:31;;;;;;;8.52;7.50;;;18.60;94.70;;;;;;5108509;28;20035;-38
2021/05/31 08:58:57;;;;;;;9.90;6.85;;;18.70;94.60;;;;;;5108899;28;20031;-40
2021/05/31 09:01:24;;;;;;;8.35;7.00;;;18.80;94.50;;;;;;5111318;28;20024;-37
2021/05/31 09:03:52;;;;;;;6.60;5.88;;;18.90;94.40;;;;;;5111233;28;20019;-41
2021/05/31 09:06:18;;;;;;;8.30;5.78;;;19.00;94.30;;;;;;5111392;28;20024;-39
2021/05/31 09:08:57;;;;;;;7.65;5.00;;;19.10;94.20;;;;;;5110513;28;20100;-38
2021/05/31 09:11:25;;;;;;;5.95;4.68;;;19.20;94.10;;;;;;5111912;28;20042;-39
2021/05/31 09:13:51;;;;;;;5.80;4.85;;;19.30;93.90;;;;;;5110955;28;20335;-42
2021/05/31 09:16:22;;;;;;;4.95;4.47;;;19.30;93.80;;;;;;5110914;28;20031;-36
2021/05/31 09:18:53;;;;;;;6.13;4.43;;;19.40;93.60;;;;;;5110994;28;20138;-40
2021/05/31 09:21:28;;;;;;;5.32;3.80;;;19.50;93.30;;;;;;5111054;28;20102;-42
2021/05/31 09:23:58;;;;;;;4.85;4.13;;;19.60;93.20;;;;;;5110837;28;20034;-41
2021/05/31 09:26:23;;;;;;;8.98;5.40;;;19.60;92.90;;;;;;5110448;28;20036;-39
2021/05/31 09:29:01;;;;;;;6.10;4.90;;;19.80;92.60;;;;;;5109862;28;20837;-39
2021/05/31 09:31:29;;;;;;;5.88;4.43;;;19.90;92.40;;;;;;5110960;28;20484;-40
2021/05/31 09:34:14;;;;;;;5.38;3.80;;;20.00;92.30;;;;;;5111434;28;20138;-39
2021/05/31 09:36:50;;;;;;;5.45;4.43;;;20.10;92.10;;;;;;5110313;28;20035;-41
2021/05/31 09:39:17;;;;;;;5.18;4.35;;;20.20;92.00;;;;;;5110976;28;20045;-43
2021/05/31 09:41:43;;;;;;;4.57;4.10;;;20.30;91.90;;;;;;5109653;28;20106;-38
2021/05/31 09:44:09;;;;;;;6.25;4.55;;;20.30;91.60;;;;;;5110767;28;20024;-40
2021/05/31 09:46:45;;;;;;;4.80;4.30;;;20.40;91.40;;;;;;5110218;28;20102;-40
2021/05/31 09:49:20;;;;;;;4.70;4.20;;;20.40;91.30;;;;;;5111194;28;20452;-40
2021/05/31 09:52:04;;;;;;;8.45;4.95;;;20.50;91.20;;;;;;5109671;28;20023;-39
2021/05/31 09:54:30;;;;;;;4.00;3.60;;;20.60;90.90;;;;;;5109878;28;20390;-40
2021/05/31 09:56:57;;;;;;;4.20;3.80;;;20.70;90.80;;;;;;5110184;28;20117;-40
2021/05/31 09:59:27;;;;;;;4.45;3.70;;;20.80;90.70;;;;;;5104651;27;20022;-40
2021/05/31 10:02:02;;;;;;;6.18;4.78;;;20.80;90.50;;;;;;5109988;28;20038;-40
2021/05/31 10:04:41;;;;;;;6.07;4.47;;;20.90;90.10;;;;;;5109791;28;20272;-39
2021/05/31 10:10:00;;;;;;;5.07;4.03;;;21.20;89.90;;;;;;5085063;28;20077;-40
2021/05/31 10:12:26;;;;;;;4.60;4.03;;;21.40;89.50;;;;;;5108996;28;20609;-40
2021/05/31 10:14:52;;;;;;;4.40;4.00;;;21.40;89.10;;;;;;5109638;28;20019;-40
2021/05/31 10:17:23;;;;;;;4.35;3.78;;;21.50;88.80;;;;;;5109528;28;20035;-40
2021/05/31 10:19:49;;;;;;;4.05;3.50;;;21.60;88.50;;;;;;5108583;28;20034;-40
2021/05/31 10:22:15;;;;;;;5.43;3.80;;;21.60;88.30;;;;;;5110084;28;20028;-42
2021/05/31 10:24:41;;;;;;;3.50;3.00;;;21.70;87.80;;;;;;5109357;28;20044;-41
2021/05/31 10:27:11;;;;;;;3.63;3.20;;;21.80;87.80;;;;;;5109373;28;20092;-41
2021/05/31 10:29:39;;;;;;;3.85;3.30;;;21.80;87.20;;;;;;5109518;28;20024;-40
2021/05/31 10:32:07;;;;;;;3.50;3.20;;;21.90;87.20;;;;;;5109377;28;20070;-43
2021/05/31 10:34:43;;;;;;;3.75;3.20;;;21.90;87.00;;;;;;5108783;27;20355;-39
2021/05/31 10:37:16;;;;;;;5.28;3.10;;;22.00;86.50;;;;;;5110394;28;20143;-43
2021/05/31 10:39:42;;;;;;;5.88;3.63;;;22.10;86.30;;;;;;5108113;28;20012;-40
2021/05/31 10:42:08;;;;;;;4.75;3.35;;;22.20;86.00;;;;;;5109579;28;20107;-40
2021/05/31 10:44:35;;;;;;;3.33;2.95;;;22.20;85.40;;;;;;5108950;28;20123;-45
2021/05/31 10:47:14;;;;;;;4.32;3.53;;;22.30;85.40;;;;;;5109013;28;20106;-39
2021/05/31 10:49:40;;;;;;;5.95;3.05;;;22.30;85.10;;;;;;5109316;28;20024;-39
2021/05/31 10:52:17;;;;;;;3.65;3.20;;;22.30;84.80;;;;;;5109953;28;20049;-39
2021/05/31 10:54:42;;;;;;;4.30;3.38;;;22.30;84.20;;;;;;5108239;28;20020;-39
2021/05/31 10:57:09;;;;;;;4.32;3.75;;;22.30;84.10;;;;;;5109581;28;20067;-40
2021/05/31 10:59:49;;;;;;;5.63;3.38;;;22.30;84.30;;;;;;5109313;28;20471;-38
2021/05/31 11:02:26;;;;;;;4.35;3.25;;;22.30;84.30;;;;;;5108696;28;20019;-39
2021/05/31 11:04:52;;;;;;;5.25;3.80;;;22.30;84.20;;;;;;5109804;27;20157;-40
2021/05/31 11:07:26;;;;;;;3.70;3.40;;;22.40;84.10;;;;;;5107813;28;20660;-40
2021/05/31 11:09:53;;;;;;;3.55;3.20;;;22.50;83.90;;;;;;5109228;28;20024;-38
2021/05/31 11:12:30;;;;;;;3.60;3.30;;;22.50;83.70;;;;;;5109543;28;20028;-38
2021/05/31 11:15:08;;;;;;;3.47;3.17;;;22.60;83.20;;;;;;5108394;28;20028;-40
2021/05/31 11:17:45;;;;;;;3.50;3.08;;;22.70;82.80;;;;;;5109192;28;20028;-41
2021/05/31 11:20:14;;;;;;;4.00;3.47;;;22.70;82.70;;;;;;5110006;27;20024;-40
2021/05/31 11:22:51;;;;;;;3.80;3.40;;;22.70;82.20;;;;;;5106574;28;20047;-40
2021/05/31 11:25:19;;;;;;;4.03;3.13;;;22.70;82.20;;;;;;5108432;28;20020;-40
2021/05/31 11:27:44;;;;;;;3.67;3.22;;;22.70;82.00;;;;;;5108015;28;20080;-40
2021/05/31 11:30:17;;;;;;;3.40;3.10;;;22.60;81.50;;;;;;5107505;28;20016;-39
2021/05/31 11:32:43;;;;;;;4.22;3.83;;;22.60;81.40;;;;;;5105736;28;20626;-40
2021/05/31 11:35:15;;;;;;;4.43;3.35;;;22.60;81.20;;;;;;5108727;28;20027;-39
2021/05/31 11:37:42;;;;;;;3.88;2.97;;;22.50;80.70;;;;;;5108369;28;20031;-39
2021/05/31 11:40:15;;;;;;;3.63;3.30;;;22.50;80.10;;;;;;5109222;28;20732;-39
2021/05/31 11:42:46;;;;;;;4.53;3.45;;;22.40;80.10;;;;;;5108113;28;20031;-38
2021/05/31 11:45:12;;;;;;;4.65;3.42;;;22.40;80.20;;;;;;5108567;28;20016;-40
2021/05/31 11:47:38;;;;;;;4.60;3.17;;;22.40;80.10;;;;;;5108354;28;20110;-40
2021/05/31 11:50:04;;;;;;;5.13;3.58;;;22.50;80.00;;;;;;5108042;28;20115;-41
2021/05/31 11:52:30;;;;;;;3.42;3.13;;;22.50;79.80;;;;;;5108363;28;20107;-42
2021/05/31 11:54:56;;;;;;;3.97;3.58;;;22.50;79.50;;;;;;5108231;28;20019;-41
2021/05/31 11:57:25;;;;;;;4.50;3.58;;;22.60;79.40;;;;;;5107741;28;20036;-39
2021/05/31 12:00:01;;;;;;;5.65;3.60;;;22.60;79.40;;;;;;5107851;28;20074;-40
2021/05/31 12:02:27;;;;;;;6.20;3.47;;;22.60;79.00;;;;;;5106809;27;20038;-40
2021/05/31 12:04:54;;;;;;;3.92;3.47;;;22.60;78.90;;;;;;5107638;28;20020;-41
2021/05/31 12:07:23;;;;;;;4.47;4.00;;;22.60;79.10;;;;;;5107546;28;20130;-40
2021/05/31 12:09:49;;;;;;;7.55;4.60;;;22.60;79.10;;;;;;5107580;28;20070;-39
2021/05/31 12:12:17;;;;;;;6.15;3.80;;;22.60;77.70;;;;;;5107964;28;20419;-40
2021/05/31 12:14:55;;;;;;;4.38;3.97;;;22.60;77.30;;;;;;5107654;28;20019;-40
2021/05/31 12:17:23;;;;;;;3.90;3.38;;;22.50;77.60;;;;;;5108004;28;20188;-44
2021/05/31 12:19:56;;;;;;;4.30;3.90;;;22.50;77.70;;;;;;5106531;28;20024;-40
2021/05/31 12:22:24;;;;;;;4.43;3.90;;;22.60;76.20;;;;;;5107990;28;20420;-38
2021/05/31 12:24:53;;;;;;;5.10;3.42;;;22.60;75.50;;;;;;5106957;27;20024;-39
2021/05/31 12:27:28;;;;;;;4.78;4.10;;;22.60;75.90;;;;;;5107872;28;20054;-40
2021/05/31 12:29:54;;;;;;;3.70;3.40;;;22.60;76.40;;;;;;5107532;28;20553;-38
2021/05/31 12:32:22;;;;;;;4.05;3.00;;;22.60;76.70;;;;;;5106479;28;20012;-39
2021/05/31 12:34:48;;;;;;;4.90;4.00;;;22.60;76.90;;;;;;5106526;28;20450;-40
2021/05/31 12:37:18;;;;;;;4.75;4.13;;;22.60;75.00;;;;;;5107465;28;20373;-40
2021/05/31 12:39:46;;;;;;;3.95;3.55;;;22.60;74.70;;;;;;5106740;28;20027;-37
2021/05/31 12:42:12;;;;;;;4.70;3.80;;;22.60;74.80;;;;;;5106987;28;20100;-40
2021/05/31 12:44:39;;;;;;;4.03;3.60;;;22.60;75.20;;;;;;5106578;28;20023;-39
2021/05/31 12:47:09;;;;;;;4.68;3.67;;;22.60;75.50;;;;;;5106837;28;20024;-37
2021/05/31 12:49:35;;;;;;;4.22;3.60;;;22.60;75.50;;;;;;5095551;28;20115;-40
2021/05/31 12:52:01;;;;;;;3.88;3.55;;;22.70;75.40;;;;;;5106887;28;20055;-43
2021/05/31 12:54:29;;;;;;;3.33;3.10;;;22.70;75.00;;;;;;5107113;28;20034;-39
2021/05/31 12:57:13;;;;;;;4.13;3.05;;;22.70;75.30;;;;;;5106379;28;20518;-40